Housatonic River @ Stevenson, Ct

Housatonic River at Stevenson
 Total Drainage Area: 1,545 sq. miles 
 Drainage Area Controlled by Corps Dams: 0 sq. miles (0%) 
 Warning Flow/Stage: 13,700 cfs / 11.0 feet 
 Flood Flow/Stage: 27,200 cfs / 15.0 feet 
Date Time
(Eastern)
Stage
(ft)
Flow
(cfs)
CSM
(cfs / sq. mi.)
Jun-25 02:30 am 2.50 470 .3
Jun-25 01:30 am 2.51 473 .3
Jun-25 12:30 am 2.50 470 .3
Jun-24 11:30 pm 2.52 477 .3
Jun-24 10:30 pm 2.57 495 .3
Jun-24 09:30 pm 2.98 661 .4
Jun-24 08:30 pm 6.42 3,950 2.6
Jun-24 07:30 pm 6.74 4,441 2.9
Jun-24 06:30 pm 6.75 4,456 2.9
Jun-24 05:30 pm 6.75 4,456 2.9
Jun-24 04:30 pm 6.74 4,441 2.9
Jun-24 03:30 pm 6.71 4,395 2.8
Jun-24 02:30 pm 5.69 2,934 1.9
Jun-24 01:30 pm 2.58 498 .3
Jun-24 12:30 pm 2.75 561 .4
Jun-24 11:30 am 4.97 2,100 1.4
Jun-24 10:30 am 6.74 4,441 2.9
Jun-24 09:30 am 6.73 4,425 2.9
Jun-24 08:30 am 6.71 4,395 2.8
Jun-24 07:30 am 6.71 4,395 2.8
Jun-24 06:30 am 6.70 4,380 2.8
Jun-24 05:30 am 5.36 2,530 1.6
Jun-24 04:30 am 2.54 484 .3
Jun-24 03:30 am 2.54 484 .3
Jun-24 02:30 am 2.57 495 .3
Report Generated June 25, 2024 07:00 am